Hovedside
METAR-TAF:

METAR-TAF

Lufthavner :

Weno, Mikronesia

breddegrad: 07-28N, lengdegrad: 151-51E, høyde over havet: 3 m

Gjeldene værobservasjon

Denne rapporten ble laget for 31 minutter siden, klokken 14:50 UTC
Vind 3 kt fra skiftende retning
Temperatur 26°C
Luftfuktighet 94%
Trykk 1009 hPa
Sikt: 24.1 km
Få skyer i en høyde av 1400 ft
Spredte skyer i en høyde av 28000 ft

METAR: PTKK 141450Z VRB03KT 15SM FEW014 SCT280 26/25 A2979 RMK SLP089 8/101 T02560247 57015

Tid: 01:21 (15:21 UTC)

Varsel

Denne rapporten ble laget for 3 timer og 48 minutter siden, klokken 11:33 UTC
Varsel gyldig fra 14. klokken 12 UTC til 15. klokken 12 UTC
Vind 7 kt fra Øst-sørøst
Sikt: 10 km
Få skyer i en høyde av 1500 ft
Spredte skyer i en høyde av 5000 ft
regnbyger i nærheten

TAF: PTKK 141133Z 1412/1512 12007KT P6SM VCSH FEW015 SCT050

Værobservasjoner og værvarsel for over 4000 flyplasser (METAR- og TAF-rapporter).

Tilgjengelige stasjoner er representert av de røde og gule prikkene på kartet.

Hold musepekeren over prikken for å se navnet på stasjonen.

Klikk så for å se værobservasjoner og -varsler.

For å forandre kartet kan du klikke på den grønne knappen med svart kryss for å zoome inn, på den grønne knappen med strek for å zoome ut, eller på de grønne pilene for å se tilstøtende kart.


METAR-TAF: